Time;durP1;ratioP1;P1;durP2;ratioP2;P2;SDS_P1;SDS_P2;PMS_P1;PMS_P2;Temp;Humidity;BMP_temperature;BMP_pressure;BME280_temperature;BME280_humidity;BME280_pressure;Samples;Min_cycle;Max_cycle;Signal;HPM_P1;HPM_P2
2022/08/06 00:00:41;;;;;;;7.27;4.70;;;;;;;;;;4977388;28;20241;-82
2022/08/06 00:03:08;;;;;;;5.03;4.53;;;17.20;99.90;;;;;;4976964;28;20542;-81
2022/08/06 00:05:33;;;;;;;6.23;4.17;;;17.20;99.90;;;;;;4976974;28;20219;-81
2022/08/06 00:07:59;;;;;;;5.03;3.80;;;17.20;99.90;;;;;;4975680;28;20677;-80
2022/08/06 00:10:25;;;;;;;4.03;3.30;;;;;;;;;;4977171;28;20242;-82
2022/08/06 00:12:51;;;;;;;4.83;3.27;;;17.20;99.90;;;;;;4977763;28;20243;-82
2022/08/06 00:15:18;;;;;;;5.27;3.30;;;17.30;99.90;;;;;;4975836;28;20203;-82
2022/08/06 00:17:45;;;;;;;5.10;3.60;;;17.30;99.90;;;;;;4977167;28;20200;-82
2022/08/06 00:20:15;;;;;;;6.33;3.67;;;17.30;99.90;;;;;;4976548;28;20709;-82
2022/08/06 00:22:41;;;;;;;4.00;3.60;;;17.40;99.90;;;;;;4976011;28;20230;-81
2022/08/06 00:25:07;;;;;;;4.03;3.60;;;17.30;99.90;;;;;;4977324;28;20212;-81
2022/08/06 00:27:34;;;;;;;5.00;3.87;;;17.20;99.90;;;;;;4976409;28;20199;-81
2022/08/06 00:29:59;;;;;;;4.10;3.63;;;17.20;99.90;;;;;;4976206;28;20237;-83
2022/08/06 00:32:25;;;;;;;3.60;3.23;;;17.20;99.90;;;;;;4975283;28;20581;-81
2022/08/06 00:34:51;;;;;;;7.20;3.23;;;17.30;99.90;;;;;;4987480;28;20666;-80
2022/08/06 00:37:17;;;;;;;3.20;2.80;;;17.30;99.90;;;;;;4987884;28;20211;-81
2022/08/06 00:39:43;;;;;;;4.07;3.20;;;17.30;99.90;;;;;;4976368;28;20219;-81
2022/08/06 00:42:09;;;;;;;5.33;3.47;;;17.30;99.90;;;;;;4976080;28;20706;-81
2022/08/06 00:44:35;;;;;;;3.77;3.40;;;17.30;99.90;;;;;;4974919;28;20215;-80
2022/08/06 00:47:00;;;;;;;3.73;3.23;;;17.30;99.90;;;;;;4976002;28;20180;-81
2022/08/06 00:49:27;;;;;;;3.57;3.27;;;17.30;99.90;;;;;;4975758;28;20654;-80
2022/08/06 00:51:52;;;;;;;4.83;3.63;;;17.30;99.90;;;;;;4974842;28;20176;-79
2022/08/06 00:54:20;;;;;;;6.53;4.33;;;17.30;99.90;;;;;;4976038;28;20181;-80
2022/08/06 00:56:45;;;;;;;8.73;4.73;;;17.30;99.90;;;;;;4974535;28;20187;-80
2022/08/06 00:59:11;;;;;;;6.50;5.13;;;17.30;99.90;;;;;;4974028;28;20272;-80
2022/08/06 01:01:37;;;;;;;5.97;5.00;;;17.30;99.90;;;;;;4975009;28;20188;-80
2022/08/06 01:04:04;;;;;;;6.77;5.77;;;17.40;99.90;;;;;;4974353;28;20195;-80
2022/08/06 01:06:30;;;;;;;6.30;4.57;;;17.40;99.90;;;;;;4974527;28;20232;-80
2022/08/06 01:08:56;;;;;;;4.50;4.10;;;17.40;99.90;;;;;;4974320;28;20211;-81
2022/08/06 01:11:22;;;;;;;5.93;5.33;;;17.40;99.90;;;;;;4974039;28;20177;-80
2022/08/06 01:13:48;;;;;;;6.90;5.77;;;17.50;99.90;;;;;;4975341;28;20180;-80
2022/08/06 01:16:25;;;;;;;6.77;5.90;;;17.50;99.90;;;;;;4974645;28;20188;-80
2022/08/06 01:19:11;;;;;;;9.33;7.10;;;17.50;99.90;;;;;;4975318;28;20276;-80
2022/08/06 01:21:49;;;;;;;9.03;7.50;;;17.50;99.90;;;;;;4975683;28;20239;-80
2022/08/06 01:24:32;;;;;;;10.57;6.43;;;17.50;99.90;;;;;;4973741;28;20230;-80
2022/08/06 01:27:37;;;;;;;8.20;6.70;;;17.40;99.90;;;;;;4973688;28;20561;-80
2022/08/06 01:30:19;;;;;;;8.30;6.53;;;17.40;99.90;;;;;;4973775;28;20181;-80
2022/08/06 01:32:53;;;;;;;6.73;5.57;;;17.40;99.90;;;;;;4974859;28;20172;-80
2022/08/06 01:35:29;;;;;;;4.70;4.17;;;17.40;99.90;;;;;;4973934;28;20593;-80
2022/08/06 01:38:07;;;;;;;7.00;4.50;;;17.40;99.90;;;;;;4973498;28;20656;-80
2022/08/06 01:40:36;;;;;;;4.63;4.23;;;17.40;99.90;;;;;;4974019;28;20204;-79
2022/08/06 01:43:06;;;;;;;5.57;4.90;;;17.40;99.90;;;;;;4979569;28;20172;-80
2022/08/06 01:45:34;;;;;;;6.33;4.50;;;17.50;99.90;;;;;;4992400;28;20204;-80
2022/08/06 01:48:08;;;;;;;5.00;4.47;;;17.40;99.90;;;;;;4990010;28;20380;-80
2022/08/06 01:50:37;;;;;;;4.47;4.07;;;17.50;99.90;;;;;;4974911;28;20305;-80
2022/08/06 01:53:06;;;;;;;4.67;4.27;;;17.40;99.90;;;;;;4973594;28;20186;-80
2022/08/06 01:55:38;;;;;;;8.37;4.30;;;17.40;99.90;;;;;;4973402;28;20189;-80
2022/08/06 01:58:05;;;;;;;4.83;4.20;;;17.30;99.90;;;;;;4974644;28;20224;-80
2022/08/06 02:00:34;;;;;;;5.80;4.00;;;17.20;99.90;;;;;;4974554;28;20188;-80
2022/08/06 02:03:05;;;;;;;5.23;4.03;;;17.20;99.90;;;;;;4973675;28;20197;-81
2022/08/06 02:05:33;;;;;;;6.20;4.20;;;17.20;99.90;;;;;;4974928;28;20636;-80
2022/08/06 02:08:01;;;;;;;4.13;3.70;;;17.20;99.90;;;;;;4974281;28;20198;-80
2022/08/06 02:10:30;;;;;;;4.17;3.77;;;17.10;99.90;;;;;;4974034;28;20240;-82
2022/08/06 02:12:56;;;;;;;5.10;3.97;;;17.20;99.90;;;;;;4975076;28;20174;-81
2022/08/06 02:15:28;;;;;;;5.30;3.77;;;17.20;99.90;;;;;;4973139;28;20553;-81
2022/08/06 02:17:59;;;;;;;4.13;3.73;;;17.20;99.90;;;;;;4973213;28;20289;-81
2022/08/06 02:20:43;;;;;;;4.73;3.83;;;17.20;99.90;;;;;;4973632;28;20591;-81
2022/08/06 02:23:14;;;;;;;4.00;3.60;;;17.20;99.90;;;;;;4973287;28;20662;-81
2022/08/06 02:25:42;;;;;;;6.67;4.13;;;17.20;99.90;;;;;;4974436;28;20197;-81
2022/08/06 02:28:10;;;;;;;4.90;3.80;;;17.20;99.90;;;;;;4973011;28;20655;-81
2022/08/06 02:30:40;;;;;;;4.43;3.67;;;17.20;99.90;;;;;;4973294;28;20555;-81
2022/08/06 02:33:07;;;;;;;5.17;3.30;;;17.20;99.90;;;;;;4974692;28;20182;-81
2022/08/06 02:35:41;;;;;;;4.87;3.60;;;17.20;99.90;;;;;;4973615;28;20249;-81
2022/08/06 02:38:19;;;;;;;5.07;3.77;;;17.20;99.90;;;;;;4973305;28;20208;-81
2022/08/06 02:40:52;;;;;;;5.60;3.73;;;17.20;99.90;;;;;;4975079;28;20198;-81
2022/08/06 02:43:23;;;;;;;5.43;3.50;;;17.20;99.90;;;;;;4977059;28;20192;-81
2022/08/06 02:46:03;;;;;;;6.47;3.67;;;17.20;99.90;;;;;;4973774;28;20211;-81
2022/08/06 02:48:44;;;;;;;4.90;3.63;;;17.20;99.90;;;;;;4974554;28;20205;-81
2022/08/06 02:51:15;;;;;;;6.00;3.83;;;17.20;99.90;;;;;;4973150;28;20173;-81
2022/08/06 02:54:02;;;;;;;4.30;3.60;;;17.20;99.90;;;;;;4972846;28;20184;-81
2022/08/06 02:56:30;;;;;;;4.93;3.63;;;17.30;99.90;;;;;;4974197;28;20172;-81
2022/08/06 02:58:58;;;;;;;5.57;3.43;;;17.30;99.90;;;;;;4974760;28;20196;-81
2022/08/06 03:01:32;;;;;;;4.17;3.77;;;17.30;99.90;;;;;;4976871;28;20614;-80
2022/08/06 03:04:00;;;;;;;3.80;3.50;;;17.20;99.90;;;;;;4989488;28;20172;-81
2022/08/06 03:06:29;;;;;;;4.13;3.73;;;17.20;99.90;;;;;;4982071;28;20189;-81
2022/08/06 03:08:57;;;;;;;5.23;3.90;;;17.10;99.90;;;;;;4973987;28;20714;-81
2022/08/06 03:11:25;;;;;;;4.47;3.77;;;17.00;99.90;;;;;;4974178;28;20641;-81
2022/08/06 03:13:52;;;;;;;4.17;3.77;;;17.00;99.90;;;;;;4973134;28;20177;-81
2022/08/06 03:16:19;;;;;;;5.30;4.23;;;17.00;99.90;;;;;;4974256;28;20598;-81
2022/08/06 03:18:48;;;;;;;6.83;4.10;;;16.90;99.90;;;;;;4974170;28;20200;-81
2022/08/06 03:21:15;;;;;;;8.20;4.57;;;16.90;99.90;;;;;;4972669;28;20188;-81
2022/08/06 03:23:42;;;;;;;4.30;3.90;;;16.90;99.90;;;;;;4973739;28;20181;-80
2022/08/06 03:26:08;;;;;;;6.57;3.90;;;16.90;99.90;;;;;;4972637;28;20243;-81
2022/08/06 03:28:36;;;;;;;4.70;4.10;;;16.90;99.90;;;;;;4972935;28;20211;-81
2022/08/06 03:31:03;;;;;;;4.70;4.30;;;17.00;99.90;;;;;;4973142;28;20193;-81
2022/08/06 03:33:29;;;;;;;5.63;4.27;;;17.00;99.90;;;;;;4974667;28;20176;-81
2022/08/06 03:35:58;;;;;;;5.90;4.60;;;17.00;99.90;;;;;;4977546;28;20276;-81
2022/08/06 03:38:25;;;;;;;5.47;4.53;;;17.00;99.90;;;;;;4974949;28;20196;-81
2022/08/06 03:40:52;;;;;;;5.10;4.10;;;17.00;99.90;;;;;;4976407;28;20196;-81
2022/08/06 03:43:17;;;;;;;4.20;3.83;;;17.00;99.90;;;;;;4975882;28;20189;-80
2022/08/06 03:45:50;;;;;;;3.90;3.43;;;17.00;99.90;;;;;;4977376;28;20561;-81
2022/08/06 03:48:23;;;;;;;4.03;3.57;;;17.00;99.90;;;;;;4978984;28;20201;-81
2022/08/06 03:50:49;;;;;;;4.90;3.77;;;16.90;99.90;;;;;;4979059;28;20176;-80
2022/08/06 03:53:22;;;;;;;4.63;4.20;;;16.90;99.90;;;;;;4976169;28;20183;-80
2022/08/06 03:55:50;;;;;;;5.60;4.07;;;16.90;99.90;;;;;;4987523;28;20172;-81
2022/08/06 03:58:17;;;;;;;4.97;4.30;;;16.90;99.90;;;;;;4995871;28;20192;-81
2022/08/06 04:00:51;;;;;;;5.00;4.47;;;16.90;99.90;;;;;;4982606;28;20771;-81
2022/08/06 04:03:20;;;;;;;4.97;4.57;;;16.90;99.90;;;;;;4977007;28;20178;-81
2022/08/06 04:05:47;;;;;;;4.90;4.40;;;16.90;99.90;;;;;;4977521;28;20208;-81
2022/08/06 04:08:13;;;;;;;7.57;5.70;;;16.90;99.90;;;;;;4975787;28;20257;-81
2022/08/06 04:10:41;;;;;;;5.50;5.00;;;16.90;99.90;;;;;;4977224;28;20200;-81
2022/08/06 04:13:13;;;;;;;5.87;5.27;;;16.90;99.90;;;;;;4977275;28;20229;-82
2022/08/06 04:15:39;;;;;;;9.23;7.03;;;16.90;99.90;;;;;;4978601;28;20204;-81
2022/08/06 04:18:12;;;;;;;9.40;7.57;;;16.90;99.90;;;;;;4988018;28;20235;-80
2022/08/06 04:20:41;;;;;;;11.97;8.30;;;16.90;99.90;;;;;;4996486;28;20192;-80
2022/08/06 04:23:07;;;;;;;11.77;8.20;;;16.80;99.90;;;;;;4996624;28;20180;-81
2022/08/06 04:25:43;;;;;;;13.63;8.97;;;16.80;99.90;;;;;;4995620;28;20209;-81
2022/08/06 04:28:10;;;;;;;19.03;10.77;;;16.80;99.90;;;;;;4995255;28;20203;-80
2022/08/06 04:30:38;;;;;;;14.83;10.83;;;16.80;99.90;;;;;;4995739;28;20168;-80
2022/08/06 04:33:05;;;;;;;16.07;10.97;;;16.80;99.90;;;;;;4995250;28;20179;-81
2022/08/06 04:35:31;;;;;;;16.73;11.20;;;16.60;99.90;;;;;;4992797;28;20184;-81
2022/08/06 04:37:59;;;;;;;16.60;11.30;;;16.80;99.90;;;;;;4978486;28;20753;-81
2022/08/06 04:40:26;;;;;;;25.13;11.57;;;16.70;99.90;;;;;;4988665;28;20196;-81
2022/08/06 04:42:52;;;;;;;19.20;12.50;;;16.70;99.90;;;;;;4985425;28;20176;-81
2022/08/06 04:45:18;;;;;;;15.90;10.97;;;16.70;99.90;;;;;;4981233;28;20236;-81
2022/08/06 04:47:45;;;;;;;15.43;10.13;;;16.80;99.90;;;;;;4982458;28;20189;-81
2022/08/06 04:50:11;;;;;;;13.20;8.40;;;16.70;99.90;;;;;;4977229;28;20263;-81
2022/08/06 04:52:37;;;;;;;12.70;8.20;;;16.60;99.90;;;;;;4976272;28;20176;-81
2022/08/06 04:55:03;;;;;;;14.63;8.83;;;16.50;99.90;;;;;;4976081;28;20643;-81
2022/08/06 04:57:29;;;;;;;13.73;8.90;;;16.10;99.90;;;;;;4975226;28;20204;-81
2022/08/06 04:59:55;;;;;;;15.97;9.33;;;;;;;;;;4975072;28;20654;-81
2022/08/06 05:02:21;;;;;;;18.27;9.53;;;;;;;;;;4976049;28;20181;-81
2022/08/06 05:04:55;;;;;;;21.07;9.80;;;16.00;99.90;;;;;;4975651;28;20200;-81
2022/08/06 05:07:24;;;;;;;14.87;9.30;;;16.10;99.90;;;;;;4974057;28;20231;-81
2022/08/06 05:09:50;;;;;;;12.47;7.93;;;;;;;;;;4975933;28;20168;-81
2022/08/06 05:12:35;;;;;;;9.33;7.43;;;15.90;99.90;;;;;;4976112;28;20634;-81
2022/08/06 05:15:22;;;;;;;12.60;7.90;;;16.00;99.90;;;;;;4974666;28;20209;-81
2022/08/06 05:18:01;;;;;;;13.23;7.03;;;16.10;99.90;;;;;;4974145;28;20207;-81
2022/08/06 05:20:31;;;;;;;9.97;7.90;;;15.80;99.90;;;;;;4974622;28;20275;-82
2022/08/06 05:23:02;;;;;;;9.67;8.03;;;15.80;99.90;;;;;;4974287;28;20272;-82
2022/08/06 05:25:28;;;;;;;10.27;7.50;;;;;;;;;;4975749;28;20756;-81
2022/08/06 05:27:54;;;;;;;11.53;7.17;;;15.70;99.90;;;;;;4973529;28;20196;-82
2022/08/06 05:30:21;;;;;;;9.73;7.10;;;;;;;;;;4974834;28;20197;-81
2022/08/06 05:32:48;;;;;;;9.90;7.33;;;15.90;99.90;;;;;;4973786;28;20234;-82
2022/08/06 05:35:14;;;;;;;10.47;7.77;;;15.80;99.90;;;;;;4974787;28;20225;-81
2022/08/06 05:37:40;;;;;;;7.27;6.57;;;15.70;99.90;;;;;;4973348;28;20204;-81
2022/08/06 05:40:07;;;;;;;8.10;6.63;;;15.70;99.90;;;;;;4973353;28;20192;-81
2022/08/06 05:42:33;;;;;;;8.60;6.53;;;15.70;99.90;;;;;;4973692;28;20590;-81
2022/08/06 05:44:59;;;;;;;7.90;6.53;;;;;;;;;;4974870;28;20669;-81
2022/08/06 05:47:28;;;;;;;7.70;5.80;;;15.80;99.90;;;;;;4974860;28;20665;-81
2022/08/06 05:50:03;;;;;;;8.10;6.80;;;15.80;99.90;;;;;;4974103;28;20188;-82
2022/08/06 05:52:36;;;;;;;9.50;6.20;;;15.80;99.90;;;;;;4973530;28;20173;-81
2022/08/06 05:55:08;;;;;;;7.20;5.60;;;15.90;99.90;;;;;;4976103;28;20601;-81
2022/08/06 05:57:39;;;;;;;7.00;5.80;;;15.90;99.90;;;;;;4972918;28;20208;-81
2022/08/06 06:00:10;;;;;;;5.97;5.37;;;15.90;99.90;;;;;;4974316;28;20180;-81
2022/08/06 06:02:39;;;;;;;8.20;5.97;;;15.70;99.90;;;;;;4973714;28;20615;-81
2022/08/06 06:05:06;;;;;;;5.83;4.93;;;15.70;99.90;;;;;;4972730;28;20216;-81
2022/08/06 06:07:33;;;;;;;6.67;5.37;;;15.60;99.90;;;;;;4980369;28;20202;-81
2022/08/06 06:10:02;;;;;;;5.83;4.93;;;15.70;99.90;;;;;;4993443;28;20210;-82
2022/08/06 06:12:30;;;;;;;6.67;5.90;;;15.80;99.90;;;;;;4989254;28;20244;-82
2022/08/06 06:14:56;;;;;;;5.90;5.30;;;;;;;;;;4980536;28;20189;-82
2022/08/06 06:17:45;;;;;;;8.87;5.70;;;15.40;99.90;;;;;;4973197;28;20207;-82
2022/08/06 06:20:20;;;;;;;7.67;5.87;;;15.30;99.90;;;;;;4973447;28;20188;-82
2022/08/06 06:23:07;;;;;;;7.90;6.03;;;15.60;99.90;;;;;;4974574;28;20203;-82
2022/08/06 06:25:40;;;;;;;6.67;5.97;;;15.50;99.90;;;;;;4972837;28;20235;-82
2022/08/06 06:28:17;;;;;;;6.83;5.93;;;15.60;99.90;;;;;;4972659;28;20192;-82
2022/08/06 06:30:52;;;;;;;8.73;6.50;;;15.60;99.90;;;;;;4974323;28;20168;-82
2022/08/06 06:33:28;;;;;;;7.57;6.27;;;15.70;99.90;;;;;;4973933;28;20177;-81
2022/08/06 06:35:57;;;;;;;10.53;7.17;;;15.60;99.90;;;;;;4973751;28;20165;-81
2022/08/06 06:38:23;;;;;;;7.43;6.40;;;;;;;;;;4972440;28;20239;-82
2022/08/06 06:40:58;;;;;;;9.00;6.10;;;16.00;99.90;;;;;;4972764;28;20203;-82
2022/08/06 06:43:31;;;;;;;5.90;5.30;;;15.90;99.90;;;;;;4974385;28;20169;-82
2022/08/06 06:46:03;;;;;;;5.30;4.80;;;15.80;99.90;;;;;;4972472;28;20325;-82
2022/08/06 06:48:35;;;;;;;6.27;4.70;;;15.80;99.90;;;;;;4972208;28;20565;-82
2022/08/06 06:51:07;;;;;;;5.73;4.50;;;16.10;99.90;;;;;;4972404;28;20173;-82
2022/08/06 06:53:37;;;;;;;5.33;4.33;;;16.00;99.90;;;;;;4973818;28;20252;-82
2022/08/06 06:56:04;;;;;;;4.83;4.13;;;15.90;99.90;;;;;;4974192;28;20169;-81
2022/08/06 06:59:06;;;;;;;5.07;4.00;;;15.70;99.90;;;;;;4973906;28;20538;-82
2022/08/06 07:01:33;;;;;;;4.73;3.67;;;15.70;99.90;;;;;;5004289;28;20279;-82
2022/08/06 07:04:02;;;;;;;4.03;3.63;;;16.10;99.90;;;;;;4973785;28;20204;-82
2022/08/06 07:06:29;;;;;;;4.50;3.30;;;15.60;99.90;;;;;;4973973;28;20201;-79
2022/08/06 07:08:55;;;;;;;4.73;3.43;;;15.90;99.90;;;;;;4973222;28;20201;-79
2022/08/06 07:11:24;;;;;;;12.40;5.83;;;15.90;99.90;;;;;;4972256;28;20184;-78
2022/08/06 07:13:51;;;;;;;7.13;5.43;;;15.80;99.90;;;;;;4975116;28;20176;-78
2022/08/06 07:16:20;;;;;;;10.13;6.57;;;15.60;99.90;;;;;;4975826;28;20184;-78
2022/08/06 07:18:48;;;;;;;8.77;6.47;;;15.90;99.90;;;;;;4976755;28;20192;-78
2022/08/06 07:21:17;;;;;;;12.07;6.90;;;15.40;99.90;;;;;;4977357;28;20187;-78
2022/08/06 07:23:45;;;;;;;9.13;6.50;;;15.80;99.90;;;;;;4976974;28;20219;-79
2022/08/06 07:26:15;;;;;;;10.87;7.03;;;15.70;99.90;;;;;;4977168;28;20208;-80
2022/08/06 07:28:42;;;;;;;9.73;6.33;;;15.60;99.90;;;;;;4975269;28;20200;-79
2022/08/06 07:31:09;;;;;;;13.87;6.57;;;15.50;99.90;;;;;;4976717;28;20183;-79
2022/08/06 07:33:37;;;;;;;9.10;6.50;;;15.60;99.90;;;;;;4976798;28;20206;-80
2022/08/06 07:36:03;;;;;;;10.50;6.13;;;15.60;99.90;;;;;;4976424;28;20255;-79
2022/08/06 07:38:31;;;;;;;8.63;5.93;;;15.60;99.90;;;;;;4975711;28;20235;-79
2022/08/06 07:41:02;;;;;;;10.13;6.73;;;15.50;99.90;;;;;;4977677;28;20196;-78
2022/08/06 07:43:33;;;;;;;9.13;6.50;;;15.50;99.90;;;;;;4977955;28;20173;-78
2022/08/06 07:46:04;;;;;;;12.17;6.30;;;15.40;99.90;;;;;;4975853;28;20208;-79
2022/08/06 07:49:03;;;;;;;7.87;5.67;;;15.30;99.90;;;;;;4976675;28;20224;-78
2022/08/06 07:51:33;;;;;;;9.90;6.57;;;15.50;99.90;;;;;;4988492;28;20219;-79
2022/08/06 07:54:00;;;;;;;11.33;6.07;;;15.20;99.90;;;;;;4976669;28;20181;-79
2022/08/06 07:56:27;;;;;;;11.67;6.60;;;15.40;99.90;;;;;;4976656;28;20219;-79
2022/08/06 07:58:54;;;;;;;10.83;7.77;;;15.40;99.90;;;;;;4976384;28;20195;-79
2022/08/06 08:01:20;;;;;;;8.90;6.90;;;15.50;99.90;;;;;;4977050;28;20680;-79
2022/08/06 08:06:31;;;;;;;10.73;7.13;;;15.20;99.90;;;;;;4977307;28;20293;-79
2022/08/06 08:09:15;;;;;;;10.33;7.33;;;15.50;99.90;;;;;;4976100;28;20233;-79
2022/08/06 08:11:42;;;;;;;10.83;8.13;;;15.70;99.90;;;;;;4986382;28;20178;-78
2022/08/06 08:14:10;;;;;;;8.27;7.47;;;15.90;99.90;;;;;;4990549;28;20184;-78
2022/08/06 08:16:38;;;;;;;11.03;8.27;;;15.60;99.90;;;;;;4980572;28;20177;-79
2022/08/06 08:19:30;;;;;;;9.67;8.67;;;15.60;99.90;;;;;;4975203;28;20694;-79
2022/08/06 08:22:02;;;;;;;11.63;8.73;;;15.60;99.90;;;;;;4979610;28;20177;-80
2022/08/06 08:24:31;;;;;;;10.70;8.83;;;15.70;99.90;;;;;;4976505;28;20184;-82
2022/08/06 08:26:58;;;;;;;10.60;9.50;;;15.60;99.90;;;;;;4976795;28;20201;-79
2022/08/06 08:29:23;;;;;;;9.80;8.80;;;15.40;99.90;;;;;;4975331;28;20249;-82
2022/08/06 08:31:49;;;;;;;11.40;9.33;;;15.70;99.90;;;;;;4974631;28;20182;-82
2022/08/06 08:34:15;;;;;;;10.50;8.90;;;;;;;;;;4974622;28;20654;-82
2022/08/06 08:36:41;;;;;;;11.37;9.70;;;16.00;99.90;;;;;;4975820;28;20204;-81
2022/08/06 08:39:07;;;;;;;13.33;9.87;;;15.80;99.90;;;;;;4974420;28;20258;-82
2022/08/06 08:41:39;;;;;;;17.63;9.80;;;15.90;99.90;;;;;;4976054;28;20181;-81
2022/08/06 08:44:07;;;;;;;9.57;8.57;;;15.80;99.90;;;;;;4975845;28;20168;-82
2022/08/06 08:46:39;;;;;;;12.57;8.67;;;15.90;99.90;;;;;;4975885;28;20217;-81
2022/08/06 08:49:08;;;;;;;14.53;8.40;;;16.00;99.90;;;;;;4974126;28;20204;-80
2022/08/06 08:51:41;;;;;;;12.43;8.00;;;15.80;99.90;;;;;;4975321;28;20696;-80
2022/08/06 08:54:09;;;;;;;11.30;8.73;;;15.90;99.90;;;;;;4975807;28;20175;-81
2022/08/06 08:56:36;;;;;;;13.77;12.27;;;15.90;99.90;;;;;;4976075;28;20185;-80
2022/08/06 08:59:02;;;;;;;9.20;7.77;;;15.60;99.90;;;;;;4975144;28;20212;-81
2022/08/06 09:01:28;;;;;;;12.13;9.33;;;15.60;99.90;;;;;;4975582;28;20631;-82
2022/08/06 09:03:54;;;;;;;14.97;10.83;;;;;;;;;;4974097;28;20216;-82
2022/08/06 09:06:21;;;;;;;15.50;9.17;;;15.40;99.90;;;;;;4975480;28;20243;-81
2022/08/06 09:08:48;;;;;;;24.07;10.00;;;15.90;99.90;;;;;;4974991;28;20201;-81
2022/08/06 09:11:14;;;;;;;181.80;21.43;;;15.60;99.90;;;;;;4974114;28;20180;-80
2022/08/06 09:13:40;;;;;;;53.97;11.40;;;15.40;99.90;;;;;;4974237;28;20185;-80
2022/08/06 09:16:06;;;;;;;15.70;10.27;;;18.00;99.90;;;;;;4974059;28;20185;-80
2022/08/06 09:18:33;;;;;;;123.77;18.00;;;15.40;99.90;;;;;;4974217;28;20201;-81
2022/08/06 09:21:01;;;;;;;67.40;13.93;;;15.80;99.90;;;;;;4973655;28;20188;-81
2022/08/06 09:23:27;;;;;;;150.83;21.33;;;15.70;99.90;;;;;;4973688;28;20551;-81
2022/08/06 09:25:53;;;;;;;54.03;13.67;;;;;;;;;;4974766;28;20201;-81
2022/08/06 09:28:42;;;;;;;45.50;13.87;;;15.80;99.90;;;;;;4973970;28;20211;-81
2022/08/06 09:31:18;;;;;;;42.67;12.70;;;15.90;99.90;;;;;;4980835;28;20174;-81
2022/08/06 09:34:06;;;;;;;11.93;10.53;;;15.60;99.90;;;;;;4991325;28;20218;-81
2022/08/06 09:36:43;;;;;;;12.80;10.97;;;15.70;99.90;;;;;;4973401;28;20209;-81
2022/08/06 09:39:09;;;;;;;24.37;10.67;;;15.90;99.90;;;;;;4972818;28;20204;-82
2022/08/06 09:41:45;;;;;;;14.87;11.00;;;16.00;99.90;;;;;;4974524;28;20693;-82
2022/08/06 09:44:11;;;;;;;13.27;9.50;;;15.70;99.90;;;;;;4974970;28;20200;-82
2022/08/06 09:46:42;;;;;;;11.60;10.40;;;16.20;99.90;;;;;;4976358;28;20205;-83
2022/08/06 09:49:10;;;;;;;11.60;10.40;;;15.70;99.90;;;;;;4977331;28;20200;-82
2022/08/06 09:51:37;;;;;;;12.23;10.93;;;16.00;99.90;;;;;;4976758;28;20185;-82
2022/08/06 09:54:06;;;;;;;19.07;9.87;;;15.80;99.90;;;;;;4975077;28;20187;-81
2022/08/06 09:56:32;;;;;;;10.27;9.00;;;16.00;99.90;;;;;;4975472;28;20189;-81
2022/08/06 09:59:08;;;;;;;11.30;10.20;;;15.80;99.90;;;;;;4976966;28;20231;-80
2022/08/06 10:01:45;;;;;;;12.43;10.27;;;15.90;99.90;;;;;;4976464;28;20156;-83
2022/08/06 10:04:25;;;;;;;13.23;10.90;;;15.60;99.90;;;;;;4976012;28;20607;-81
2022/08/06 10:06:55;;;;;;;13.57;10.43;;;16.20;99.90;;;;;;4975654;28;20174;-82
2022/08/06 10:09:21;;;;;;;12.43;11.13;;;16.00;99.90;;;;;;4976107;28;20161;-81
2022/08/06 10:11:48;;;;;;;33.20;12.90;;;16.20;99.90;;;;;;4978323;28;20173;-82
2022/08/06 10:14:32;;;;;;;11.83;10.20;;;16.30;99.90;;;;;;4977026;28;20181;-82
2022/08/06 10:17:15;;;;;;;15.27;11.23;;;16.10;99.90;;;;;;4977894;28;20619;-81
2022/08/06 10:19:46;;;;;;;15.73;10.97;;;15.70;99.90;;;;;;4978010;28;20161;-81
2022/08/06 10:22:17;;;;;;;12.63;11.33;;;16.00;99.90;;;;;;4977477;28;20278;-82
2022/08/06 10:24:45;;;;;;;13.37;11.67;;;15.80;99.90;;;;;;4979118;28;20750;-82
2022/08/06 10:27:31;;;;;;;13.27;11.80;;;16.40;99.90;;;;;;4979912;28;20192;-82
2022/08/06 10:30:03;;;;;;;16.43;12.30;;;15.90;99.90;;;;;;4979415;28;20640;-82
2022/08/06 10:32:38;;;;;;;16.43;11.27;;;15.80;99.90;;;;;;4983809;28;20174;-83
2022/08/06 10:35:05;;;;;;;16.17;12.63;;;16.10;99.90;;;;;;4984517;28;20165;-82
2022/08/06 10:37:35;;;;;;;14.43;12.30;;;16.10;99.90;;;;;;4981673;28;20208;-82
2022/08/06 10:40:03;;;;;;;14.47;11.87;;;16.10;99.90;;;;;;4976065;28;20670;-82
2022/08/06 10:42:29;;;;;;;14.33;12.03;;;16.50;99.90;;;;;;4974587;28;20275;-81
2022/08/06 10:44:57;;;;;;;15.47;12.17;;;16.30;99.90;;;;;;4976186;28;20209;-82
2022/08/06 10:47:24;;;;;;;19.00;13.67;;;16.20;99.90;;;;;;4979642;28;20198;-82
2022/08/06 10:49:53;;;;;;;16.57;13.93;;;16.20;99.90;;;;;;4982862;28;20269;-83
2022/08/06 10:52:20;;;;;;;18.67;13.97;;;16.00;99.90;;;;;;4985062;28;20184;-83
2022/08/06 10:54:46;;;;;;;19.20;14.57;;;16.10;99.90;;;;;;4984038;28;20181;-83
2022/08/06 10:57:12;;;;;;;17.83;14.00;;;;;;;;;;4983621;28;20212;-82
2022/08/06 10:59:43;;;;;;;16.77;14.97;;;16.20;99.90;;;;;;4985219;28;20686;-81
2022/08/06 11:02:46;;;;;;;18.97;15.03;;;16.50;99.90;;;;;;4983804;28;20192;-81
2022/08/06 11:05:16;;;;;;;17.13;14.73;;;16.30;99.90;;;;;;4983274;28;20211;-81
2022/08/06 11:08:15;;;;;;;18.40;15.03;;;16.20;99.90;;;;;;4985095;28;20658;-82
2022/08/06 11:11:06;;;;;;;15.93;14.30;;;16.60;99.90;;;;;;4983902;28;20170;-83
2022/08/06 11:13:51;;;;;;;17.60;15.37;;;16.50;99.90;;;;;;4984155;28;20178;-83
2022/08/06 11:16:29;;;;;;;17.30;14.23;;;16.50;99.90;;;;;;4985593;28;20536;-83
2022/08/06 11:18:59;;;;;;;18.97;15.27;;;16.80;99.90;;;;;;4984626;28;20254;-82
2022/08/06 11:21:41;;;;;;;15.60;14.00;;;16.60;99.90;;;;;;4984689;28;20181;-81
2022/08/06 11:24:07;;;;;;;17.10;15.30;;;16.70;99.90;;;;;;4985964;28;20173;-82
2022/08/06 11:26:35;;;;;;;18.97;15.70;;;16.90;99.90;;;;;;4984453;28;20208;-82
2022/08/06 11:29:02;;;;;;;18.07;14.97;;;16.70;99.90;;;;;;4984453;28;20205;-82
2022/08/06 11:31:35;;;;;;;17.20;15.40;;;16.60;99.90;;;;;;4985565;28;20186;-83
2022/08/06 11:34:05;;;;;;;20.03;16.13;;;16.70;99.90;;;;;;4985538;28;20261;-82
2022/08/06 11:36:44;;;;;;;23.20;16.17;;;16.70;99.90;;;;;;4984017;28;20189;-83
2022/08/06 11:39:10;;;;;;;20.50;16.37;;;16.70;99.90;;;;;;4983411;28;20206;-82
2022/08/06 11:41:47;;;;;;;19.87;17.77;;;16.70;99.90;;;;;;4984197;28;20517;-82
2022/08/06 11:44:17;;;;;;;21.37;16.87;;;16.60;99.90;;;;;;4980957;28;20187;-82
2022/08/06 11:46:45;;;;;;;18.30;16.40;;;16.50;99.90;;;;;;4980438;28;20216;-81
2022/08/06 11:49:15;;;;;;;19.03;17.03;;;16.50;99.90;;;;;;4980170;28;20213;-81
2022/08/06 11:51:49;;;;;;;22.70;17.20;;;16.40;99.90;;;;;;4981987;28;20615;-81
2022/08/06 11:54:27;;;;;;;19.43;17.00;;;16.30;99.90;;;;;;4980771;28;20187;-80
2022/08/06 11:57:04;;;;;;;21.63;17.03;;;16.30;99.90;;;;;;4982097;28;20520;-81
2022/08/06 11:59:53;;;;;;;22.93;17.07;;;16.40;99.90;;;;;;4978147;28;20184;-82
2022/08/06 12:02:41;;;;;;;21.10;17.37;;;16.30;99.90;;;;;;4978645;28;20170;-81
2022/08/06 12:05:27;;;;;;;22.80;17.73;;;16.30;99.90;;;;;;4979008;28;20269;-81
2022/08/06 12:08:20;;;;;;;23.57;17.73;;;16.30;99.90;;;;;;4979427;28;20197;-81
2022/08/06 12:11:24;;;;;;;20.73;17.27;;;16.30;99.90;;;;;;4979466;28;20183;-83
2022/08/06 12:13:50;;;;;;;21.37;16.70;;;16.30;99.90;;;;;;4979208;28;20170;-84
2022/08/06 12:16:35;;;;;;;43.73;18.83;;;16.30;99.90;;;;;;4977634;28;20259;-82
2022/08/06 12:19:04;;;;;;;20.83;17.10;;;16.30;99.90;;;;;;4976945;28;20208;-81
2022/08/06 12:21:30;;;;;;;20.67;15.70;;;16.40;99.90;;;;;;4978427;28;20176;-82
2022/08/06 12:23:56;;;;;;;43.53;19.23;;;16.40;99.90;;;;;;4976678;28;20184;-81
2022/08/06 12:26:22;;;;;;;23.67;16.77;;;16.40;99.90;;;;;;4976683;28;20230;-82
2022/08/06 12:28:49;;;;;;;22.43;17.03;;;16.60;99.90;;;;;;4976846;28;20287;-82
2022/08/06 12:31:31;;;;;;;19.00;16.60;;;16.50;99.90;;;;;;4977917;28;20176;-82
2022/08/06 12:33:57;;;;;;;24.03;16.00;;;16.70;99.90;;;;;;4977239;28;20168;-81
2022/08/06 12:36:29;;;;;;;20.67;15.97;;;16.80;99.90;;;;;;4977649;28;20182;-82
2022/08/06 12:38:56;;;;;;;25.50;16.90;;;16.80;99.90;;;;;;4977096;28;20207;-82
2022/08/06 12:41:22;;;;;;;17.00;15.23;;;16.80;99.90;;;;;;4975579;28;20665;-82
2022/08/06 12:43:48;;;;;;;18.80;15.90;;;16.90;99.90;;;;;;4977101;28;20191;-80
2022/08/06 12:46:15;;;;;;;19.67;16.73;;;16.90;99.90;;;;;;4985897;28;20211;-80
2022/08/06 12:48:47;;;;;;;17.40;14.33;;;17.00;99.90;;;;;;4997229;28;20204;-82
2022/08/06 12:51:13;;;;;;;17.10;15.37;;;17.00;99.90;;;;;;4987263;28;20165;-83
2022/08/06 12:53:48;;;;;;;27.37;16.27;;;17.10;99.90;;;;;;4975928;28;20180;-82
2022/08/06 12:56:15;;;;;;;18.73;15.60;;;17.20;99.90;;;;;;4977207;28;20211;-83
2022/08/06 12:58:42;;;;;;;17.33;14.83;;;17.30;99.90;;;;;;4976834;28;20227;-82
2022/08/06 13:01:12;;;;;;;22.17;14.33;;;17.40;99.90;;;;;;4977491;28;20219;-83
2022/08/06 13:03:41;;;;;;;20.10;13.30;;;17.40;99.90;;;;;;4980002;28;20181;-82